Time;durP1;ratioP1;P1;durP2;ratioP2;P2;SDS_P1;SDS_P2;PMS_P1;PMS_P2;Temp;Humidity;BMP_temperature;BMP_pressure;BME280_temperature;BME280_humidity;BME280_pressure;Samples;Min_cycle;Max_cycle;Signal;HPM_P1;HPM_P2
2021/08/06 00:00:30;;;;;;;;;;;;;;;18.53;80.81;98498.42;1704692;84;21062;-69
2021/08/06 00:02:56;;;;;;;5.12;2.10;;;;;;;18.50;80.97;98487.28;1706492;84;20569;-68
2021/08/06 00:05:23;;;;;;;;;;;;;;;18.51;81.19;98505.45;1706729;84;21030;-69
2021/08/06 00:07:49;;;;;;;5.87;2.10;;;;;;;18.52;81.27;98507.87;1697929;84;20140;-68
2021/08/06 00:10:15;;;;;;;;;;;;;;;18.49;81.48;98525.66;1709358;84;21042;-68
2021/08/06 00:12:41;;;;;;;5.22;2.30;;;;;;;18.49;81.65;98527.03;1713606;83;20151;-68
2021/08/06 00:15:08;;;;;;;;;;;;;;;18.44;81.94;98517.06;1663946;85;21443;-69
2021/08/06 00:17:34;;;;;;;5.12;2.37;;;;;;;18.45;82.11;98477.91;1696829;84;20132;-68
2021/08/06 00:20:05;;;;;;;5.58;2.25;;;;;;;18.41;82.42;98443.38;1710831;83;21092;-68
2021/08/06 00:22:32;;;;;;;5.85;2.47;;;;;;;18.40;82.67;98439.81;1678363;84;21032;-67
2021/08/06 00:24:58;;;;;;;6.22;2.20;;;;;;;18.45;82.80;98462.19;1659409;84;21071;-68
2021/08/06 00:27:25;;;;;;;8.80;2.75;;;;;;;18.49;82.79;98481.56;1692523;83;21600;-68
2021/08/06 00:29:51;;;;;;;;;;;;;;;18.53;82.80;98468.11;1704440;84;21126;-69
2021/08/06 00:32:18;;;;;;;7.50;2.40;;;;;;;18.54;82.85;98431.14;1702137;84;20130;-68
2021/08/06 00:34:45;;;;;;;4.42;1.98;;;;;;;18.49;83.01;98440.23;1695925;84;21042;-68
2021/08/06 00:37:12;;;;;;;8.15;2.27;;;;;;;18.49;83.04;98420.94;1700690;84;21141;-68
2021/08/06 00:39:40;;;;;;;4.85;2.10;;;;;;;18.49;83.01;98406.59;1686392;84;21549;-69
2021/08/06 00:42:07;;;;;;;5.00;1.82;;;;;;;18.51;82.94;98398.79;1695796;84;21075;-69
2021/08/06 00:44:35;;;;;;;6.25;1.90;;;;;;;18.51;82.91;98418.08;1697231;84;21048;-69
2021/08/06 00:47:03;;;;;;;5.90;2.05;;;;;;;18.53;82.95;98426.78;1700665;84;21098;-68
2021/08/06 00:49:30;;;;;;;3.95;1.75;;;;;;;18.54;82.92;98406.34;1660761;85;21007;-69
2021/08/06 00:51:57;;;;;;;4.80;2.05;;;;;;;18.54;82.92;98411.85;1693590;84;21079;-69
2021/08/06 00:54:24;;;;;;;4.75;2.02;;;;;;;18.53;82.97;98426.78;1671499;84;21472;-69
2021/08/06 00:56:56;;;;;;;3.92;1.87;;;;;;;18.52;82.97;98421.06;1668271;84;21078;-69
2021/08/06 00:59:23;;;;;;;4.95;1.98;;;;;;;18.53;82.99;98413.60;1690123;84;21094;-69
2021/08/06 01:01:58;;;;;;;3.58;1.60;;;;;;;18.51;82.99;98396.61;1700725;84;21123;-69
2021/08/06 01:04:35;;;;;;;3.10;1.50;;;;;;;18.48;82.86;98327.03;1696769;84;21058;-69
2021/08/06 01:07:05;;;;;;;3.60;1.45;;;;;;;18.45;82.70;98304.33;1695221;84;21094;-70
2021/08/06 01:09:46;;;;;;;3.87;1.32;;;;;;;18.42;82.62;98340.86;1696328;84;21015;-69
2021/08/06 01:12:20;;;;;;;4.22;1.57;;;;;;;18.41;82.63;98362.10;1627108;87;21160;-70
2021/08/06 01:14:46;;;;;;;4.45;1.35;;;;;;;18.43;82.57;98329.47;1639998;87;20952;-71
2021/08/06 01:17:15;;;;;;;4.00;1.30;;;;;;;18.43;82.50;98253.70;1649445;86;21517;-70
2021/08/06 01:20:00;;;;;;;4.65;1.32;;;;;;;18.45;82.46;98280.91;1667252;86;21042;-70
2021/08/06 01:22:59;;;;;;;3.05;1.37;;;;;;;18.46;82.48;98301.80;1657635;86;21078;-70
2021/08/06 01:26:01;;;;;;;5.78;1.32;;;;;;;18.44;82.53;98336.59;1663757;84;21059;-70
2021/08/06 01:28:32;;;;;;;2.60;1.00;;;;;;;18.37;82.63;98301.41;1666210;84;21107;-69
2021/08/06 01:31:00;;;;;;;5.03;1.40;;;;;;;18.38;82.64;98326.43;1730533;82;21555;-70
2021/08/06 01:33:28;;;;;;;5.78;1.15;;;;;;;18.44;82.49;98326.14;1736128;82;21008;-70
2021/08/06 01:35:54;;;;;;;2.95;1.12;;;;;;;18.48;82.34;98324.27;1656865;86;21035;-70
2021/08/06 01:38:23;;;;;;;3.58;1.40;;;;;;;18.49;82.15;98315.66;1722516;82;21094;-69
2021/08/06 01:41:17;;;;;;;3.17;1.30;;;;;;;18.54;82.02;98311.84;1714740;82;21469;-69
2021/08/06 01:44:20;;;;;;;3.87;1.17;;;;;;;18.54;81.87;98311.84;1736823;82;21016;-69
2021/08/06 01:47:09;;;;;;;3.95;1.40;;;;;;;18.53;81.76;98311.04;1721356;82;21565;-69
2021/08/06 01:49:47;;;;;;;4.03;1.42;;;;;;;18.51;81.75;98323.58;1663639;86;21494;-69
2021/08/06 01:52:17;;;;;;;4.83;1.20;;;;;;;18.51;81.76;98300.16;1713753;82;21123;-69
2021/08/06 01:54:46;;;;;;;3.80;1.15;;;;;;;18.50;81.80;98342.61;1732180;82;20992;-69
2021/08/06 01:57:13;;;;;;;4.10;1.40;;;;;;;18.49;81.82;98365.26;1729824;82;21047;-69
2021/08/06 01:59:42;;;;;;;6.62;1.60;;;;;;;18.47;81.83;98387.41;1737691;82;21550;-69
2021/08/06 02:02:09;;;;;;;6.87;1.47;;;;;;;18.45;81.86;98367.70;1734929;82;21510;-69
2021/08/06 02:04:36;;;;;;;5.15;1.50;;;;;;;18.44;81.80;98363.34;1655769;86;21076;-70
2021/08/06 02:07:04;;;;;;;5.12;1.50;;;;;;;18.42;81.80;98338.91;1734516;82;21111;-69
2021/08/06 02:09:32;;;;;;;4.90;1.50;;;;;;;18.43;81.67;98333.60;1718271;82;20980;-69
2021/08/06 02:12:00;;;;;;;4.60;1.40;;;;;;;18.40;81.59;98359.92;1715034;82;21126;-70
2021/08/06 02:14:30;;;;;;;2.62;1.15;;;;;;;18.38;81.60;98358.69;1715969;82;21561;-69
2021/08/06 02:16:56;;;;;;;4.87;1.35;;;;;;;18.38;81.65;98354.55;1738942;82;21055;-70
2021/08/06 02:19:24;;;;;;;3.77;1.00;;;;;;;18.35;81.67;98341.49;1737859;82;21082;-70
2021/08/06 02:21:55;;;;;;;3.25;1.37;;;;;;;18.33;81.69;98319.80;1721826;82;21478;-70
2021/08/06 02:24:23;;;;;;;3.87;1.40;;;;;;;18.29;81.75;98306.52;1709528;82;21051;-70
2021/08/06 02:26:50;;;;;;;3.72;1.20;;;;;;;18.27;81.75;98298.39;1715179;82;21071;-70
2021/08/06 02:29:19;;;;;;;3.77;1.10;;;;;;;18.25;81.68;98291.85;1738378;82;21502;-70
2021/08/06 02:31:46;;;;;;;4.75;1.27;;;;;;;18.24;81.64;98302.67;1720129;82;21019;-70
2021/08/06 02:34:15;;;;;;;5.10;1.52;;;;;;;18.23;81.63;98294.75;1706404;82;21024;-70
2021/08/06 02:36:42;;;;;;;2.40;1.10;;;;;;;18.21;81.62;98282.70;1736435;82;21059;-70
2021/08/06 02:39:18;;;;;;;3.52;1.30;;;;;;;18.21;81.63;98295.09;1736791;82;20992;-71
2021/08/06 02:41:46;;;;;;;4.53;1.30;;;;;;;18.23;81.61;98285.11;1733991;82;21538;-70
2021/08/06 02:44:13;;;;;;;5.05;1.50;;;;;;;18.23;81.64;98274.09;1736351;82;21023;-70
2021/08/06 02:46:39;;;;;;;5.45;1.52;;;;;;;18.25;81.60;98271.77;1736354;82;21016;-70
2021/08/06 02:49:06;;;;;;;3.62;1.20;;;;;;;18.27;81.58;98273.61;1738533;82;21863;-71
2021/08/06 02:51:34;;;;;;;4.10;1.37;;;;;;;18.27;81.59;98262.59;1695952;82;21103;-71
2021/08/06 02:54:00;;;;;;;4.22;1.55;;;;;;;18.29;81.64;98256.93;1731283;82;21012;-71
2021/08/06 02:56:27;;;;;;;3.58;1.52;;;;;;;18.30;81.60;98246.72;1738238;82;21048;-70
2021/08/06 02:58:55;;;;;;;4.95;1.65;;;;;;;18.32;81.55;98230.61;1736770;82;21040;-70
2021/08/06 03:01:23;;;;;;;3.52;1.40;;;;;;;18.33;81.48;98215.12;1737386;82;21074;-70
2021/08/06 03:03:50;;;;;;;3.20;1.22;;;;;;;18.35;81.35;98227.94;1727490;82;21016;-70
2021/08/06 03:06:17;;;;;;;5.10;1.50;;;;;;;18.39;81.30;98222.52;1734539;82;21537;-70
2021/08/06 03:08:44;;;;;;;6.45;1.40;;;;;;;18.43;81.16;98226.72;1718877;82;21067;-70
2021/08/06 03:11:12;;;;;;;5.92;1.67;;;;;;;18.44;81.09;98215.36;1650030;86;21650;-70
2021/08/06 03:13:40;;;;;;;2.90;1.42;;;;;;;18.45;81.05;98217.53;1734535;82;21633;-70
2021/08/06 03:16:07;;;;;;;4.83;1.85;;;;;;;18.48;80.96;98220.38;1725094;82;21058;-70
2021/08/06 03:18:33;;;;;;;6.45;1.55;;;;;;;18.53;80.91;98201.42;1711456;82;21094;-70
2021/08/06 03:21:00;;;;;;;6.72;1.80;;;;;;;18.56;80.81;98206.20;1645821;86;21086;-70
2021/08/06 03:23:27;;;;;;;4.80;1.50;;;;;;;18.61;80.71;98212.80;1720387;82;21581;-70
2021/08/06 03:25:54;;;;;;;3.72;1.50;;;;;;;18.63;80.62;98225.66;1654583;86;21084;-70
2021/08/06 03:28:21;;;;;;;3.27;1.60;;;;;;;18.67;80.51;98224.55;1699674;82;20964;-70
2021/08/06 03:30:48;;;;;;;5.55;1.60;;;;;;;18.69;80.46;98221.44;1728326;82;21597;-70
2021/08/06 03:33:15;;;;;;;6.45;1.55;;;;;;;18.72;80.34;98230.36;1657946;86;21051;-70
2021/08/06 03:35:42;;;;;;;5.55;1.60;;;;;;;18.74;80.29;98234.34;1709680;82;21083;-70
2021/08/06 03:38:23;;;;;;;4.17;1.57;;;;;;;18.79;80.26;98232.70;1719444;82;21561;-70
2021/08/06 03:40:51;;;;;;;2.85;1.60;;;;;;;18.85;80.21;98246.98;1730402;82;21082;-70
2021/08/06 03:43:18;;;;;;;5.33;2.00;;;;;;;18.92;80.08;98238.85;1727058;82;21047;-70
2021/08/06 03:45:44;;;;;;;5.90;1.67;;;;;;;18.96;79.98;98238.92;1658583;86;21066;-70
2021/08/06 03:48:12;;;;;;;4.42;1.80;;;;;;;19.00;79.82;98234.29;1705681;82;21510;-70
2021/08/06 03:50:39;;;;;;;5.58;1.52;;;;;;;19.04;79.72;98238.72;1725119;82;20976;-70
2021/08/06 03:53:06;;;;;;;3.70;1.77;;;;;;;19.08;79.69;98244.31;1646117;86;21023;-70
2021/08/06 03:55:33;;;;;;;5.58;1.75;;;;;;;19.13;79.66;98244.80;1677749;84;21568;-70
2021/08/06 03:58:00;;;;;;;3.10;1.87;;;;;;;19.21;79.50;98252.64;1644027;86;21090;-70
2021/08/06 04:00:28;;;;;;;3.60;1.40;;;;;;;19.28;79.34;98250.02;1733880;82;21015;-70
2021/08/06 04:02:55;;;;;;;3.62;1.55;;;;;;;19.35;79.16;98251.54;1716436;82;21000;-70
2021/08/06 04:05:24;;;;;;;6.70;1.92;;;;;;;19.41;79.06;98249.30;1730176;82;21004;-70
2021/08/06 04:07:50;;;;;;;2.92;1.52;;;;;;;19.50;79.19;98256.20;1734220;82;21001;-70
2021/08/06 04:10:22;;;;;;;2.92;1.60;;;;;;;19.67;79.20;98261.25;1711812;82;21565;-70
2021/08/06 04:12:50;;;;;;;5.78;1.77;;;;;;;19.90;78.83;98254.36;1651951;86;20991;-70
2021/08/06 04:15:17;;;;;;;5.08;1.70;;;;;;;20.16;78.10;98267.40;1738367;82;20964;-70
2021/08/06 04:17:45;;;;;;;4.87;2.10;;;;;;;20.32;77.44;98261.99;1721038;82;21110;-71
2021/08/06 04:20:11;;;;;;;4.80;2.12;;;;;;;20.38;76.71;98274.09;1656267;86;20991;-71
2021/08/06 04:22:39;;;;;;;5.80;2.42;;;;;;;20.35;76.27;98273.69;1719419;82;21055;-71
2021/08/06 04:25:08;;;;;;;5.05;2.02;;;;;;;20.33;75.86;98270.48;1727386;82;21031;-70
2021/08/06 04:27:35;;;;;;;5.80;2.15;;;;;;;20.24;75.57;98275.45;1710994;82;21617;-71
2021/08/06 04:30:04;;;;;;;5.33;2.17;;;;;;;20.19;75.72;98279.89;1721250;81;21008;-71
2021/08/06 04:32:30;;;;;;;5.08;2.10;;;;;;;20.23;76.11;98277.19;1719936;82;21054;-71
2021/08/06 04:34:57;;;;;;;5.78;1.95;;;;;;;20.34;76.08;98267.94;1732781;82;20991;-72
2021/08/06 04:37:23;;;;;;;5.65;2.00;;;;;;;20.43;75.56;98255.83;1726445;82;21055;-71
2021/08/06 04:39:50;;;;;;;6.65;2.00;;;;;;;20.54;75.80;98265.08;1732589;82;21034;-71
2021/08/06 04:42:17;;;;;;;3.52;1.60;;;;;;;20.76;76.02;98258.69;1730281;82;21633;-71
2021/08/06 04:44:44;;;;;;;6.00;2.50;;;;;;;21.10;75.50;98268.65;1727512;82;21051;-71
2021/08/06 04:47:10;;;;;;;5.05;2.20;;;;;;;21.38;74.26;98281.22;1734769;82;21067;-70
2021/08/06 04:49:37;;;;;;;4.50;1.90;;;;;;;21.62;73.59;98284.85;1733289;82;21581;-70
2021/08/06 04:52:04;;;;;;;3.60;1.87;;;;;;;21.90;72.45;98291.27;1661363;86;21119;-70
2021/08/06 04:54:32;;;;;;;4.53;1.57;;;;;;;22.10;71.73;98294.08;1730939;82;21011;-71
2021/08/06 04:56:58;;;;;;;4.55;1.82;;;;;;;22.34;71.03;98300.42;1724260;82;21036;-72
2021/08/06 04:59:25;;;;;;;4.10;1.70;;;;;;;22.69;70.30;98311.81;1722852;82;21012;-72
2021/08/06 05:01:53;;;;;;;5.22;1.87;;;;;;;23.01;69.01;98311.20;1720191;82;21099;-72
2021/08/06 05:04:19;;;;;;;5.83;1.87;;;;;;;23.25;68.16;98318.27;1711221;82;22110;-71
2021/08/06 05:06:46;;;;;;;3.83;1.67;;;;;;;23.47;66.77;98316.41;1650196;86;21103;-71
2021/08/06 05:09:12;;;;;;;4.58;1.52;;;;;;;23.56;65.39;98306.34;1712331;82;21011;-71
2021/08/06 05:11:40;;;;;;;3.72;1.45;;;;;;;23.56;64.66;98310.50;1645510;86;21684;-71
2021/08/06 05:14:07;;;;;;;5.00;1.70;;;;;;;23.50;64.27;98318.41;1715609;82;21637;-72
2021/08/06 05:16:35;;;;;;;3.87;1.60;;;;;;;23.39;64.42;98325.86;1656455;86;21131;-71
2021/08/06 05:19:03;;;;;;;4.08;1.60;;;;;;;23.29;64.49;98322.45;1708973;82;21118;-71
2021/08/06 05:21:30;;;;;;;3.42;1.75;;;;;;;23.21;64.80;98320.23;1708910;84;21068;-70
2021/08/06 05:23:57;;;;;;;4.72;1.92;;;;;;;23.22;65.14;98320.44;1709559;84;21107;-71
2021/08/06 05:26:23;;;;;;;5.33;1.77;;;;;;;23.23;65.11;98316.48;1730031;82;21102;-70
2021/08/06 05:28:50;;;;;;;2.95;1.50;;;;;;;23.17;64.65;98333.29;1741558;81;21031;-71
2021/08/06 05:31:19;;;;;;;4.67;1.80;;;;;;;23.06;64.76;98326.88;1746973;82;21553;-70
2021/08/06 05:33:46;;;;;;;4.87;1.72;;;;;;;23.02;65.37;98339.97;1747510;82;21082;-71
2021/08/06 05:36:12;;;;;;;3.75;2.02;;;;;;;23.05;65.18;98328.67;1745003;82;21035;-70
2021/08/06 06:06:59;;;;;;;4.12;2.33;;;;;;;23.85;63.19;98346.89;1743592;80;20970;31
2021/08/06 06:09:26;;;;;;;3.90;1.90;;;;;;;23.66;63.29;98357.77;1687658;85;21031;-71
2021/08/06 06:11:53;;;;;;;3.92;1.70;;;;;;;23.62;63.26;98366.67;1659989;86;21546;-71
2021/08/06 06:14:20;;;;;;;4.95;2.00;;;;;;;23.55;62.93;98356.92;1699265;84;21022;-72
2021/08/06 06:16:48;;;;;;;5.20;2.27;;;;;;;23.45;62.93;98362.43;1699842;84;21037;-76
2021/08/06 06:19:16;;;;;;;5.22;2.10;;;;;;;23.37;63.79;98358.79;1699518;84;21078;-76
2021/08/06 06:21:43;;;;;;;6.35;2.10;;;;;;;23.36;63.88;98360.55;1668160;84;21096;-76
2021/08/06 06:24:09;;;;;;;9.78;3.25;;;;;;;23.37;63.79;98362.16;1699395;84;21065;-76
2021/08/06 06:26:36;;;;;;;8.65;2.33;;;;;;;23.35;63.78;98356.98;1668090;84;21489;-77
2021/08/06 06:29:02;;;;;;;4.50;2.37;;;;;;;23.26;63.81;98357.34;1667734;84;21057;-77
2021/08/06 06:31:30;;;;;;;5.37;2.22;;;;;;;23.18;64.17;98354.32;1667921;84;21536;-76
2021/08/06 06:33:57;;;;;;;4.95;2.60;;;;;;;23.11;64.66;98362.61;1699311;84;21101;-78
2021/08/06 06:36:24;;;;;;;4.22;2.40;;;;;;;23.12;64.32;98363.41;1667841;84;21515;-77
2021/08/06 06:38:50;;;;;;;5.47;2.10;;;;;;;23.10;64.60;98365.17;1699719;84;21117;-77
2021/08/06 06:41:17;;;;;;;5.67;2.33;;;;;;;23.12;64.85;98356.47;1699599;84;21038;-77
2021/08/06 06:43:45;;;;;;;5.12;2.45;;;;;;;23.09;64.43;98356.66;1697483;84;21093;-75
2021/08/06 06:46:12;;;;;;;4.67;2.42;;;;;;;23.03;64.81;98360.97;1699588;84;21058;-74
2021/08/06 06:48:38;;;;;;;5.78;2.47;;;;;;;22.95;64.62;98360.73;1699305;84;21077;-75
2021/08/06 06:51:06;;;;;;;63.10;24.63;;;;;;;22.91;65.14;98367.44;1699453;84;21078;-75
2021/08/06 06:53:33;;;;;;;10.95;5.67;;;;;;;22.91;65.32;98366.05;1699246;84;21094;-75
2021/08/06 06:56:00;;;;;;;7.20;2.62;;;;;;;22.94;65.60;98368.84;1699464;84;21516;-80
2021/08/06 06:58:28;;;;;;;5.30;2.35;;;;;;;22.93;65.74;98360.31;1699358;84;21078;-79
2021/08/06 07:00:56;;;;;;;5.80;2.30;;;;;;;22.93;65.71;98367.83;1699470;84;21635;-78
2021/08/06 07:03:22;;;;;;;5.25;2.62;;;;;;;22.95;65.84;98359.34;1699590;84;21576;-78
2021/08/06 07:05:49;;;;;;;5.67;2.65;;;;;;;23.00;66.15;98369.27;1699237;84;21105;-77
2021/08/06 07:08:16;;;;;;;5.55;2.42;;;;;;;23.04;65.91;98359.79;1709174;83;21080;-77
2021/08/06 07:10:43;;;;;;;4.80;2.90;;;;;;;23.02;65.71;98363.56;1694379;83;21007;-76
2021/08/06 07:13:11;;;;;;;4.97;2.30;;;;;;;23.05;66.47;98348.10;1694637;83;21511;-75
2021/08/06 07:15:37;;;;;;;5.78;2.37;;;;;;;23.10;66.04;98341.58;1723406;83;21004;-79
2021/08/06 07:18:04;;;;;;;6.05;2.62;;;;;;;23.09;65.83;98351.70;1722978;83;21091;-77
2021/08/06 07:20:31;;;;;;;6.05;2.70;;;;;;;23.03;65.61;98349.86;1723426;83;21001;-76
2021/08/06 07:22:58;;;;;;;4.40;2.60;;;;;;;22.89;65.41;98354.52;1723217;83;21889;-76
2021/08/06 07:25:25;;;;;;;7.03;2.90;;;;;;;22.71;65.77;98353.81;1722967;83;21021;-77
2021/08/06 07:27:52;;;;;;;6.20;2.62;;;;;;;22.62;66.12;98355.30;1723199;83;21141;-78
2021/08/06 07:30:19;;;;;;;5.50;2.10;;;;;;;22.55;66.55;98357.43;1723405;83;21550;-78
2021/08/06 07:32:46;;;;;;;7.45;3.45;;;;;;;22.54;66.72;98357.80;1723600;83;21084;-77
2021/08/06 07:35:13;;;;;;;6.20;3.02;;;;;;;22.51;67.34;98365.50;1723390;83;21052;-78
2021/08/06 07:37:41;;;;;;;8.28;3.90;;;;;;;22.52;67.55;98371.27;1723068;83;21087;-77
2021/08/06 07:40:10;;;;;;;10.28;4.75;;;;;;;22.53;67.31;98377.80;1723097;83;21029;-79
2021/08/06 07:42:37;;;;;;;5.85;3.52;;;;;;;22.50;67.41;98387.47;1722952;83;21478;-79
2021/08/06 07:45:05;;;;;;;5.72;2.70;;;;;;;22.50;67.78;98382.73;1723346;83;20985;-78
2021/08/06 07:47:31;;;;;;;6.35;2.92;;;;;;;22.52;68.07;98392.06;1723278;83;21057;-78
2021/08/06 07:49:58;;;;;;;6.10;2.90;;;;;;;22.55;67.88;98396.25;1723344;83;21029;-77
